sensor_id;sensor_type;location;lat;lon;timestamp;P1;durP1;ratioP1;P2;durP2;ratioP2
64469;SDS011;50854;48.538;14.352;2023-06-22T00:00:23;7.03;;;2.90;;
64469;SDS011;50854;48.538;14.352;2023-06-22T00:01:23;9.03;;;2.80;;
64469;SDS011;50854;48.538;14.352;2023-06-22T00:02:23;6.67;;;2.47;;
64469;SDS011;50854;48.538;14.352;2023-06-22T00:03:24;8.67;;;3.20;;
64469;SDS011;50854;48.538;14.352;2023-06-22T00:04:24;11.00;;;2.95;;
64469;SDS011;50854;48.538;14.352;2023-06-22T00:05:25;8.45;;;2.53;;
64469;SDS011;50854;48.538;14.352;2023-06-22T00:06:25;13.63;;;3.83;;
64469;SDS011;50854;48.538;14.352;2023-06-22T00:07:26;12.83;;;2.83;;
64469;SDS011;50854;48.538;14.352;2023-06-22T00:08:26;7.13;;;2.80;;
64469;SDS011;50854;48.538;14.352;2023-06-22T00:09:26;12.57;;;2.90;;
64469;SDS011;50854;48.538;14.352;2023-06-22T00:10:26;12.20;;;2.87;;
64469;SDS011;50854;48.538;14.352;2023-06-22T00:11:27;7.13;;;3.07;;
64469;SDS011;50854;48.538;14.352;2023-06-22T00:12:27;6.65;;;2.58;;
64469;SDS011;50854;48.538;14.352;2023-06-22T00:13:28;10.23;;;3.47;;
64469;SDS011;50854;48.538;14.352;2023-06-22T00:14:28;10.27;;;2.70;;
64469;SDS011;50854;48.538;14.352;2023-06-22T00:15:29;11.43;;;2.53;;
64469;SDS011;50854;48.538;14.352;2023-06-22T00:16:30;7.88;;;2.50;;
64469;SDS011;50854;48.538;14.352;2023-06-22T00:17:30;4.93;;;2.85;;
64469;SDS011;50854;48.538;14.352;2023-06-22T00:18:30;15.90;;;3.30;;
64469;SDS011;50854;48.538;14.352;2023-06-22T00:19:31;4.50;;;2.42;;
64469;SDS011;50854;48.538;14.352;2023-06-22T00:20:35;7.03;;;2.90;;
64469;SDS011;50854;48.538;14.352;2023-06-22T00:21:37;7.28;;;2.72;;
64469;SDS011;50854;48.538;14.352;2023-06-22T00:23:39;8.77;;;3.30;;
64469;SDS011;50854;48.538;14.352;2023-06-22T00:24:39;6.70;;;2.63;;
64469;SDS011;50854;48.538;14.352;2023-06-22T00:25:39;5.67;;;2.73;;
64469;SDS011;50854;48.538;14.352;2023-06-22T00:26:40;11.25;;;2.72;;
64469;SDS011;50854;48.538;14.352;2023-06-22T00:27:40;7.57;;;2.37;;
64469;SDS011;50854;48.538;14.352;2023-06-22T00:28:41;8.37;;;2.57;;
64469;SDS011;50854;48.538;14.352;2023-06-22T00:29:41;10.52;;;2.72;;
64469;SDS011;50854;48.538;14.352;2023-06-22T00:30:42;8.63;;;2.43;;
64469;SDS011;50854;48.538;14.352;2023-06-22T00:31:42;7.07;;;2.87;;
64469;SDS011;50854;48.538;14.352;2023-06-22T00:32:43;8.43;;;2.70;;
64469;SDS011;50854;48.538;14.352;2023-06-22T00:33:43;7.32;;;2.67;;
64469;SDS011;50854;48.538;14.352;2023-06-22T00:34:43;7.90;;;2.77;;
64469;SDS011;50854;48.538;14.352;2023-06-22T00:35:44;10.73;;;2.80;;
64469;SDS011;50854;48.538;14.352;2023-06-22T00:36:44;11.73;;;2.93;;
64469;SDS011;50854;48.538;14.352;2023-06-22T00:37:44;8.53;;;3.00;;
64469;SDS011;50854;48.538;14.352;2023-06-22T00:38:45;10.37;;;3.00;;
64469;SDS011;50854;48.538;14.352;2023-06-22T00:39:45;6.65;;;2.60;;
64469;SDS011;50854;48.538;14.352;2023-06-22T00:40:45;10.07;;;3.10;;
64469;SDS011;50854;48.538;14.352;2023-06-22T00:41:46;6.53;;;2.93;;
64469;SDS011;50854;48.538;14.352;2023-06-22T00:42:46;6.47;;;2.90;;
64469;SDS011;50854;48.538;14.352;2023-06-22T00:43:46;19.07;;;3.53;;
64469;SDS011;50854;48.538;14.352;2023-06-22T00:44:46;9.37;;;3.17;;
64469;SDS011;50854;48.538;14.352;2023-06-22T00:45:47;8.37;;;2.90;;
64469;SDS011;50854;48.538;14.352;2023-06-22T00:46:47;8.27;;;3.13;;
64469;SDS011;50854;48.538;14.352;2023-06-22T00:47:48;12.90;;;3.58;;
64469;SDS011;50854;48.538;14.352;2023-06-22T00:48:48;14.73;;;3.35;;
64469;SDS011;50854;48.538;14.352;2023-06-22T00:49:49;6.60;;;3.17;;
64469;SDS011;50854;48.538;14.352;2023-06-22T00:50:52;10.95;;;3.45;;
64469;SDS011;50854;48.538;14.352;2023-06-22T00:51:56;6.15;;;3.20;;
64469;SDS011;50854;48.538;14.352;2023-06-22T00:52:58;8.20;;;2.63;;
64469;SDS011;50854;48.538;14.352;2023-06-22T00:53:59;8.80;;;2.72;;
64469;SDS011;50854;48.538;14.352;2023-06-22T00:54:59;9.07;;;3.28;;
64469;SDS011;50854;48.538;14.352;2023-06-22T00:56:02;8.35;;;2.70;;
64469;SDS011;50854;48.538;14.352;2023-06-22T00:57:03;8.02;;;3.30;;
64469;SDS011;50854;48.538;14.352;2023-06-22T00:58:04;8.68;;;3.25;;
64469;SDS011;50854;48.538;14.352;2023-06-22T00:59:08;8.52;;;3.10;;
64469;SDS011;50854;48.538;14.352;2023-06-22T01:00:12;9.25;;;3.20;;
64469;SDS011;50854;48.538;14.352;2023-06-22T01:01:19;6.22;;;2.70;;
64469;SDS011;50854;48.538;14.352;2023-06-22T01:02:23;9.50;;;3.10;;
64469;SDS011;50854;48.538;14.352;2023-06-22T01:03:23;7.30;;;2.97;;
64469;SDS011;50854;48.538;14.352;2023-06-22T01:04:24;11.80;;;3.93;;
64469;SDS011;50854;48.538;14.352;2023-06-22T01:05:33;5.55;;;2.83;;
64469;SDS011;50854;48.538;14.352;2023-06-22T01:06:35;9.80;;;3.70;;
64469;SDS011;50854;48.538;14.352;2023-06-22T01:07:39;11.18;;;2.72;;
64469;SDS011;50854;48.538;14.352;2023-06-22T01:09:59;7.75;;;3.15;;
64469;SDS011;50854;48.538;14.352;2023-06-22T01:12:05;9.60;;;3.15;;
64469;SDS011;50854;48.538;14.352;2023-06-22T01:14:17;6.22;;;3.38;;
64469;SDS011;50854;48.538;14.352;2023-06-22T01:15:22;11.73;;;3.28;;
64469;SDS011;50854;48.538;14.352;2023-06-22T01:16:24;8.63;;;3.28;;
64469;SDS011;50854;48.538;14.352;2023-06-22T01:17:25;12.25;;;3.53;;
64469;SDS011;50854;48.538;14.352;2023-06-22T01:20:36;9.05;;;3.10;;
64469;SDS011;50854;48.538;14.352;2023-06-22T01:21:37;7.25;;;3.33;;
64469;SDS011;50854;48.538;14.352;2023-06-22T01:25:13;7.15;;;2.83;;
64469;SDS011;50854;48.538;14.352;2023-06-22T01:26:25;12.25;;;3.00;;
64469;SDS011;50854;48.538;14.352;2023-06-22T01:27:39;11.07;;;2.83;;
64469;SDS011;50854;48.538;14.352;2023-06-22T01:28:46;5.97;;;2.80;;
64469;SDS011;50854;48.538;14.352;2023-06-22T01:29:50;14.82;;;3.95;;
64469;SDS011;50854;48.538;14.352;2023-06-22T01:30:51;5.13;;;2.67;;
64469;SDS011;50854;48.538;14.352;2023-06-22T01:32:04;11.68;;;3.30;;
64469;SDS011;50854;48.538;14.352;2023-06-22T01:33:06;6.90;;;2.80;;
64469;SDS011;50854;48.538;14.352;2023-06-22T01:34:06;6.78;;;2.78;;
64469;SDS011;50854;48.538;14.352;2023-06-22T01:35:08;8.55;;;3.45;;
64469;SDS011;50854;48.538;14.352;2023-06-22T01:36:10;6.15;;;2.85;;
64469;SDS011;50854;48.538;14.352;2023-06-22T01:37:11;6.72;;;3.17;;
64469;SDS011;50854;48.538;14.352;2023-06-22T01:38:12;6.00;;;2.75;;
64469;SDS011;50854;48.538;14.352;2023-06-22T01:39:13;7.45;;;2.75;;
64469;SDS011;50854;48.538;14.352;2023-06-22T01:40:14;14.13;;;3.10;;
64469;SDS011;50854;48.538;14.352;2023-06-22T01:41:15;9.00;;;3.35;;
64469;SDS011;50854;48.538;14.352;2023-06-22T01:42:16;12.85;;;3.60;;
64469;SDS011;50854;48.538;14.352;2023-06-22T01:43:17;8.77;;;2.87;;
64469;SDS011;50854;48.538;14.352;2023-06-22T01:45:28;10.30;;;3.05;;
64469;SDS011;50854;48.538;14.352;2023-06-22T01:46:28;10.30;;;2.50;;
64469;SDS011;50854;48.538;14.352;2023-06-22T01:47:29;8.13;;;2.95;;
64469;SDS011;50854;48.538;14.352;2023-06-22T01:48:30;8.00;;;3.13;;
64469;SDS011;50854;48.538;14.352;2023-06-22T01:49:31;8.68;;;2.55;;
64469;SDS011;50854;48.538;14.352;2023-06-22T01:50:31;7.87;;;2.67;;
64469;SDS011;50854;48.538;14.352;2023-06-22T01:51:32;6.07;;;2.57;;
64469;SDS011;50854;48.538;14.352;2023-06-22T01:52:32;5.78;;;2.28;;
64469;SDS011;50854;48.538;14.352;2023-06-22T01:53:34;12.07;;;2.83;;
64469;SDS011;50854;48.538;14.352;2023-06-22T01:54:34;8.77;;;3.03;;
64469;SDS011;50854;48.538;14.352;2023-06-22T01:55:34;7.73;;;2.90;;
64469;SDS011;50854;48.538;14.352;2023-06-22T01:56:35;9.93;;;3.47;;
64469;SDS011;50854;48.538;14.352;2023-06-22T01:57:35;6.50;;;2.33;;
64469;SDS011;50854;48.538;14.352;2023-06-22T01:58:37;6.90;;;2.72;;
64469;SDS011;50854;48.538;14.352;2023-06-22T01:59:52;10.48;;;2.63;;
64469;SDS011;50854;48.538;14.352;2023-06-22T02:00:57;10.20;;;3.08;;
64469;SDS011;50854;48.538;14.352;2023-06-22T02:02:04;8.32;;;3.35;;
64469;SDS011;50854;48.538;14.352;2023-06-22T02:03:08;7.47;;;2.80;;
64469;SDS011;50854;48.538;14.352;2023-06-22T02:04:16;8.23;;;2.88;;
64469;SDS011;50854;48.538;14.352;2023-06-22T02:05:18;12.90;;;2.67;;
64469;SDS011;50854;48.538;14.352;2023-06-22T02:06:27;6.38;;;2.80;;
64469;SDS011;50854;48.538;14.352;2023-06-22T02:07:31;8.18;;;2.65;;
64469;SDS011;50854;48.538;14.352;2023-06-22T02:08:44;12.57;;;3.05;;
64469;SDS011;50854;48.538;14.352;2023-06-22T02:09:45;9.48;;;2.90;;
64469;SDS011;50854;48.538;14.352;2023-06-22T02:10:48;12.70;;;3.50;;
64469;SDS011;50854;48.538;14.352;2023-06-22T02:11:48;7.05;;;2.58;;
64469;SDS011;50854;48.538;14.352;2023-06-22T02:12:51;5.47;;;2.70;;
64469;SDS011;50854;48.538;14.352;2023-06-22T02:13:52;11.50;;;2.70;;
64469;SDS011;50854;48.538;14.352;2023-06-22T02:14:53;10.48;;;2.70;;
64469;SDS011;50854;48.538;14.352;2023-06-22T02:15:53;14.13;;;3.50;;
64469;SDS011;50854;48.538;14.352;2023-06-22T02:16:54;8.90;;;2.75;;
64469;SDS011;50854;48.538;14.352;2023-06-22T02:17:54;4.03;;;2.70;;
64469;SDS011;50854;48.538;14.352;2023-06-22T02:18:55;10.25;;;2.67;;
64469;SDS011;50854;48.538;14.352;2023-06-22T02:20:03;4.97;;;2.70;;
64469;SDS011;50854;48.538;14.352;2023-06-22T02:21:08;7.03;;;2.72;;
64469;SDS011;50854;48.538;14.352;2023-06-22T02:22:08;13.47;;;2.93;;
64469;SDS011;50854;48.538;14.352;2023-06-22T02:23:09;8.55;;;3.40;;
64469;SDS011;50854;48.538;14.352;2023-06-22T02:24:09;4.93;;;2.10;;
64469;SDS011;50854;48.538;14.352;2023-06-22T02:25:09;7.03;;;2.77;;
64469;SDS011;50854;48.538;14.352;2023-06-22T02:26:10;11.60;;;2.63;;
64469;SDS011;50854;48.538;14.352;2023-06-22T02:27:10;7.65;;;2.70;;
64469;SDS011;50854;48.538;14.352;2023-06-22T02:28:11;7.10;;;3.27;;
64469;SDS011;50854;48.538;14.352;2023-06-22T02:29:11;13.07;;;3.10;;
64469;SDS011;50854;48.538;14.352;2023-06-22T02:30:11;8.20;;;2.73;;
64469;SDS011;50854;48.538;14.352;2023-06-22T02:31:12;12.40;;;3.72;;
64469;SDS011;50854;48.538;14.352;2023-06-22T02:32:12;10.33;;;2.60;;
64469;SDS011;50854;48.538;14.352;2023-06-22T02:33:13;7.80;;;3.03;;
64469;SDS011;50854;48.538;14.352;2023-06-22T02:34:13;10.30;;;3.00;;
64469;SDS011;50854;48.538;14.352;2023-06-22T02:35:18;5.80;;;2.80;;
64469;SDS011;50854;48.538;14.352;2023-06-22T02:36:18;6.72;;;3.50;;
64469;SDS011;50854;48.538;14.352;2023-06-22T02:37:23;9.15;;;2.83;;
64469;SDS011;50854;48.538;14.352;2023-06-22T02:38:25;12.07;;;3.60;;
64469;SDS011;50854;48.538;14.352;2023-06-22T02:40:27;7.97;;;3.40;;
64469;SDS011;50854;48.538;14.352;2023-06-22T02:41:27;6.68;;;3.05;;
64469;SDS011;50854;48.538;14.352;2023-06-22T02:42:28;7.80;;;3.03;;
64469;SDS011;50854;48.538;14.352;2023-06-22T02:43:29;10.35;;;3.20;;
64469;SDS011;50854;48.538;14.352;2023-06-22T02:44:29;9.13;;;3.22;;
64469;SDS011;50854;48.538;14.352;2023-06-22T02:45:30;16.55;;;5.03;;
64469;SDS011;50854;48.538;14.352;2023-06-22T02:46:30;14.45;;;5.25;;
64469;SDS011;50854;48.538;14.352;2023-06-22T02:47:31;15.73;;;6.22;;
64469;SDS011;50854;48.538;14.352;2023-06-22T02:48:31;12.75;;;5.82;;
64469;SDS011;50854;48.538;14.352;2023-06-22T02:49:32;12.17;;;5.57;;
64469;SDS011;50854;48.538;14.352;2023-06-22T02:50:32;13.80;;;4.27;;
64469;SDS011;50854;48.538;14.352;2023-06-22T02:51:33;19.92;;;6.25;;
64469;SDS011;50854;48.538;14.352;2023-06-22T02:52:34;19.25;;;7.20;;
64469;SDS011;50854;48.538;14.352;2023-06-22T17:43:03;20.40;;;6.68;;
64469;SDS011;50854;48.538;14.352;2023-06-22T19:47:39;21.10;;;7.50;;
